Ratta Weather



Ratta's Current Weather

Temprature 17.22o broken clouds

broken clouds

Rain: 0 %

Min Temprature17.22o
Max Temprature17.22o
Humidity60
Wind Speed0.45 m/h
Sun Rise06:38:28
Sun Set17:58:41
Current Time: 26-Feb-2020 23:28:42
Lat/Lon: 33.37, 73.66




Ratta's Geo Location



Ratta's Weather Forecast

Time Overall Temp Min Temp Max Temp Humidity Wind Speed Rain
27-Feb-2020 (Thu)
02:00:00 overcast clouds 15.730 14.320 15.730 37 2.48 m/h 0 %
05:00:00 overcast clouds 15.500 14.440 15.500 32 1.98 m/h 0 %
08:00:00 overcast clouds 16.890 16.190 16.890 34 2.12 m/h 0 %
11:00:00 broken clouds 22.370 22.020 22.370 26 1.38 m/h 0 %
14:00:00 scattered clouds 24.630 24.630 24.630 22 1.97 m/h 0 %
17:00:00 few clouds 23.700 23.700 23.700 29 1.16 m/h 0 %
20:00:00 few clouds 17.530 17.530 17.530 33 1.27 m/h 0 %
23:00:00 few clouds 16.400 16.400 16.400 38 2.91 m/h 0 %
28-Feb-2020 (Fri)
02:00:00 light rain 15.400 15.400 15.400 48 3.46 m/h 25 %
05:00:00 overcast clouds 15.030 15.030 15.030 43 2.47 m/h 0 %
08:00:00 overcast clouds 16.530 16.530 16.530 45 1.87 m/h 0 %
11:00:00 overcast clouds 21.860 21.860 21.860 31 1.42 m/h 0 %
14:00:00 overcast clouds 24.190 24.190 24.190 27 2.25 m/h 0 %
17:00:00 broken clouds 23.360 23.360 23.360 34 1.95 m/h 0 %
20:00:00 overcast clouds 17.630 17.630 17.630 46 0.93 m/h 0 %
23:00:00 light rain 17.260 17.260 17.260 54 3.31 m/h 31 %
29-Feb-2020 (Sat)
02:00:00 light rain 16.330 16.330 16.330 59 2.8 m/h 44 %
05:00:00 light rain 16.010 16.010 16.010 62 0.8 m/h 19 %
08:00:00 overcast clouds 16.660 16.660 16.660 62 1.65 m/h 0 %
11:00:00 overcast clouds 20.590 20.590 20.590 44 2.78 m/h 0 %
14:00:00 light rain 21.290 21.290 21.290 42 0.55 m/h 19 %
17:00:00 light rain 20.660 20.660 20.660 48 2.35 m/h 81 %
20:00:00 broken clouds 15.990 15.990 15.990 61 0.94 m/h 0 %
23:00:00 scattered clouds 14.370 14.370 14.370 64 1.32 m/h 0 %
01-Mar-2020 (Sun)
02:00:00 clear sky 13.220 13.220 13.220 62 1.32 m/h 0 %
05:00:00 clear sky 12.670 12.670 12.670 60 2.32 m/h 0 %
08:00:00 clear sky 15.310 15.310 15.310 53 2.23 m/h 0 %
11:00:00 clear sky 22.250 22.250 22.250 36 1.42 m/h 0 %
14:00:00 few clouds 24.830 24.830 24.830 28 3.07 m/h 0 %
17:00:00 few clouds 23.470 23.470 23.470 35 1.71 m/h 0 %
20:00:00 clear sky 16.930 16.930 16.930 52 1.87 m/h 0 %
23:00:00 clear sky 15.930 15.930 15.930 52 1.53 m/h 0 %
02-Mar-2020 (Mon)
02:00:00 clear sky 15.110 15.110 15.110 52 2.36 m/h 0 %
05:00:00 clear sky 14.290 14.290 14.290 51 2.41 m/h 0 %
08:00:00 scattered clouds 16.970 16.970 16.970 43 2.12 m/h 0 %
11:00:00 scattered clouds 23.790 23.790 23.790 30 1.33 m/h 0 %
14:00:00 broken clouds 25.390 25.390 25.390 23 2.62 m/h 0 %
17:00:00 scattered clouds 24.380 24.380 24.380 29 1.24 m/h 0 %
20:00:00 clear sky 17.490 17.490 17.490 45 2.05 m/h 0 %
23:00:00 clear sky 16.750 16.750 16.750 44 1.96 m/h 0 %

Famous Cities (61)